• Join FlightAware (Why Join?)
  • Login
  • US Flag 
03:32PM EDT


 

Airport Tracker/Info


-or-


 

Live Flight TrackerFlight Track Log ✈ SWA1031 ✈ 29-Jun-2013 ✈ KMCO - KJAN

Flight Track Log - Related Links

Times and Time Zones

All times are in EDT time to prevent confusion due to time zone crossing. See the SWA1031 flight status page for this flight to view local times or setup timezone preferences in your user account.

Time Position Orientation Groundspeed Altitude Reporting Facility
EDT Latitude Longitude Course Direction KTS MPH feet Rate Location/Type
12:51PM 28.4000 -81.3000 204° Southwest 173 199 700  Level Orlando TRACON
12:53PM 28.3333 -81.3333 204° Southwest 221 254 3,900 2,820 Climbing Orlando TRACON
12:54PM 28.2833 -81.3667 210° Southwest 227 261 7,200 2,940 Climbing Orlando TRACON
12:55PM 28.3000 -81.4333 286° West 248 285 9,800 2,220 Climbing Orlando TRACON
12:56PM 28.3667 -81.5167 312° West 314 361 11,900 1,800 Climbing Orlando TRACON
12:57PM 28.4333 -81.5833 319° Northwest 367 422 13,600 2,040 Climbing Orlando TRACON
12:58PM 28.5167 -81.6500 325° Northwest 372 428 16,000 1,260 Climbing Orlando TRACON
12:59PM 28.5086 -81.8389 267° West 369 425 17,100 1,020 Climbing Jacksonville Center
01:00PM 28.4783 -81.9528 253° West 367 422 18,900 2,040 Climbing Jacksonville Center
01:01PM 28.4519 -82.0733 256° West 380 437 21,200 1,860 Climbing Jacksonville Center
01:02PM 28.4256 -82.1939 256° West 391 450 22,700 1,320 Climbing Jacksonville Center
01:03PM 28.3992 -82.3167 256° West 397 457 23,900 1,140 Climbing Jacksonville Center
01:04PM 28.3661 -82.4467 254° West 409 471 25,000 1,020 Climbing Jacksonville Center
01:05PM 28.3372 -82.5789 256° West 423 487 26,000 1,080 Climbing Jacksonville Center
01:06PM 28.3189 -82.7158 261° West 434 499 27,200 1,260 Climbing Jacksonville Center
01:07PM 28.3836 -82.8311 303° West 402 463 28,500 960 Climbing Jacksonville Center
01:08PM 28.4547 -82.9444 306° West 414 476 29,200 1,020 Climbing Jacksonville Center
01:09PM 28.5233 -83.0603 304° West 434 499 30,600 1,080 Climbing Jacksonville Center
01:10PM 28.5942 -83.1739 305° West 439 505 31,400 900 Climbing Jacksonville Center
01:11PM 28.6647 -83.2878 305° West 444 511 32,500 1,080 Climbing Jacksonville Center
01:12PM 28.7333 -83.4039 304° West 444 511 33,600 1,020 Climbing Jacksonville Center
01:13PM 28.8036 -83.5181 305° West 444 511 34,600 960 Climbing Jacksonville Center
01:14PM 28.8742 -83.6322 305° West 444 511 35,600 660 Climbing Jacksonville Center
01:15PM 28.9381 -83.7444 303° West 444 511 36,000 180 Climbing Jacksonville Center
01:16PM 29.0061 -83.8589 304° West 444 511 36,000  Level Jacksonville Center
01:17PM 29.0761 -83.9736 305° West 444 511 36,000  Level Jacksonville Center
01:18PM 29.1461 -84.0886 305° West 444 511 36,000  Level Jacksonville Center
01:19PM 29.2119 -84.2011 304° West 444 511 36,000  Level Jacksonville Center
01:20PM 29.2714 -84.3042 303° West 444 511 36,000  Level Jacksonville Center
01:21PM 29.3408 -84.4197 305° West 444 511 36,000  Level Jacksonville Center
01:22PM 29.4106 -84.5328 305° West 444 511 36,000  Level Jacksonville Center
01:23PM 29.4800 -84.6483 305° West 444 511 36,000  Level Jacksonville Center
01:24PM 29.5472 -84.7642 304° West 444 511 36,000  Level Jacksonville Center
01:25PM 29.6142 -84.8850 303° West 444 511 36,000  Level Jacksonville Center
01:26PM 29.6833 -84.9986 305° West 444 511 36,000  Level Jacksonville Center
01:27PM 29.7522 -85.1175 304° West 444 511 36,000  Level Jacksonville Center
01:28PM 29.8192 -85.2339 304° West 444 511 36,000  Level Jacksonville Center
01:29PM 29.8881 -85.3481 305° West 444 511 36,000  Level Jacksonville Center
01:30PM 29.9525 -85.4622 303° West 444 511 36,000  Level Jacksonville Center
01:31PM 30.0250 -85.5986 302° West 450 518 36,000  Level Jacksonville Center
01:32PM 30.0914 -85.7108 304° West 440 506 36,000  Level Jacksonville Center
01:33PM 30.1617 -85.8306 304° West 447 514 36,000  Level Jacksonville Center
01:34PM 30.2281 -85.9433 304° West 441 507 36,000  Level Jacksonville Center
01:35PM 30.2939 -86.0583 304° West 436 502 36,000  Level Jacksonville Center
01:36PM 30.3558 -86.1711 302° West 436 502 36,000  Level Jacksonville Center
01:37PM 30.4219 -86.2842 304° West 431 496 36,000  Level Jacksonville Center
01:38PM 30.4856 -86.3997 303° West 426 490 36,000  Level Jacksonville Center
01:39PM 30.5511 -86.5131 304° West 421 484 36,000  Level Jacksonville Center
01:40PM 30.6147 -86.6242 304° West 421 484 36,000  Level Jacksonville Center
01:41PM 30.6783 -86.7378 303° West 421 484 36,000  Level Jacksonville Center
01:42PM 30.7394 -86.8514 302° West 421 484 36,000  Level Jacksonville Center
01:43PM 30.7989 -86.9531 304° West 421 484 36,000  Level Jacksonville Center
01:44PM 30.8600 -87.0669 302° West 421 484 36,000 -660 Level Jacksonville Center
01:47PM 30.9953 -87.3144 303° West 413 475 34,000 -660 Descending Houston Center
01:48PM 31.0561 -87.4253 303° West 408 470 34,000  Level Houston Center
01:49PM 31.1172 -87.5369 303° West 410 472 34,000  Level Houston Center
01:50PM 31.1792 -87.6486 303° West 412 474 34,000  Level Houston Center
01:51PM 31.2517 -87.7822 302° West 408 470 34,000  Level Houston Center
01:52PM 31.3131 -87.8944 303° West 413 475 34,000  Level Houston Center
01:53PM 31.3750 -88.0081 303° West 418 481 34,000  Level Houston Center
01:54PM 31.4353 -88.1214 302° West 414 476 34,000 -240 Level Houston Center
01:55PM 31.4956 -88.2317 303° West 404 465 33,600 -840 Descending Houston Center
01:56PM 31.5631 -88.3608 302° West 391 450 32,400 -1,020 Descending Houston Center
01:57PM 31.6203 -88.4692 302° West 393 452 31,500 -960 Descending Houston Center
01:58PM 31.6794 -88.5786 302° West 396 456 30,500 -960 Descending Houston Center
01:59PM 31.7375 -88.6875 302° West 392 451 29,600 -960 Descending Houston Center
02:00PM 31.7958 -88.7975 302° West 398 458 28,600 -1,020 Descending Houston Center
02:01PM 31.8544 -88.9083 302° West 398 458 27,600 -1,080 Descending Houston Center
02:02PM 31.9239 -89.0389 302° West 393 452 26,400 -1,080 Descending Houston Center
02:03PM 31.9803 -89.1464 302° West 390 449 25,400 -1,020 Descending Houston Center
02:04PM 32.0342 -89.2514 301° West 378 435 24,400 -1,020 Descending Houston Center
02:05PM 32.0881 -89.3544 302° West 371 427 23,400 -1,020 Descending Houston Center
02:06PM 32.1594 -89.4886 302° West 370 426 22,100 -1,440 Descending Memphis Center
02:07PM 32.2061 -89.5939 298° West 365 420 20,200 -2,640 Descending Memphis Center
02:08PM 32.2567 -89.6964 300° West 358 412 16,900 -3,300 Descending Memphis Center
02:09PM 32.3200 -89.7869 310° West 358 412 13,600 -3,000 Descending Memphis Center
02:10PM 32.3808 -89.8703 311° West 352 405 10,900 -1,500 Descending Memphis Center
02:11PM 32.4372 -89.9289 319° Northwest 315 362 10,600 -1,080 Descending Memphis Center
02:12PM 32.4856 -89.9706 324° Northwest 260 299 8,800 -1,980 Descending Memphis Center
02:13PM 32.5003 -90.0272 287° West 193 222 6,700 -1,980 Descending Memphis Center
02:14PM 32.4794 -90.0814 246° West 167 192 4,900 -1,680 Descending Memphis Center
02:15PM 32.4442 -90.1258 227° Southwest 167 192 3,400 -1,080 Descending Memphis Center
02:16PM 32.3900 -90.1481 199° South 178 205 2,800 -600 Descending Memphis Center
02:17PM 32.3272 -90.1508 182° South 205 236 2,300 -300 Descending Memphis Center
02:18PM 32.2647 -90.1289 163° South 216 249 2,200 -60 Descending Memphis Center
02:19PM 32.2103 -90.1019 157° South 221 254 2,200 -240 Level Memphis Center
02:20PM 32.2228 -90.0503 74° East 161 185 1,800 -420 Descending Memphis Center